createdAt,value
2022-10-17T00:02:12.976Z,16.70
2022-10-17T00:04:43.409Z,16.70
2022-10-17T00:07:13.763Z,16.70
2022-10-17T00:09:45.691Z,16.70
2022-10-17T00:12:16.108Z,16.70
2022-10-17T00:14:48.914Z,16.70
2022-10-17T00:17:19.381Z,16.70
2022-10-17T00:19:49.599Z,16.70
2022-10-17T00:22:20.207Z,16.70
2022-10-17T00:24:50.460Z,16.70
2022-10-17T00:27:20.841Z,16.70
2022-10-17T00:29:54.994Z,16.70
2022-10-17T00:32:25.951Z,16.60
2022-10-17T00:34:56.466Z,16.70
2022-10-17T00:37:28.729Z,16.70
2022-10-17T00:39:58.950Z,16.60
2022-10-17T00:42:30.207Z,16.60
2022-10-17T00:45:10.462Z,16.70
2022-10-17T00:47:41.094Z,16.70
2022-10-17T00:50:12.554Z,16.70
2022-10-17T00:52:43.289Z,16.70
2022-10-17T00:55:18.044Z,16.70
2022-10-17T00:57:49.223Z,16.70
2022-10-17T01:00:22.469Z,16.70
2022-10-17T01:02:52.829Z,16.70
2022-10-17T01:05:23.829Z,16.70
2022-10-17T01:07:56.724Z,16.80
2022-10-17T01:10:32.905Z,16.70
2022-10-17T01:13:13.541Z,16.80
2022-10-17T01:15:59.889Z,16.80
2022-10-17T01:18:49.709Z,16.80
2022-10-17T01:21:42.255Z,16.80
2022-10-17T01:24:45.375Z,16.80
2022-10-17T01:27:57.105Z,16.90
2022-10-17T01:30:53.529Z,16.90
2022-10-17T01:33:35.792Z,16.90
2022-10-17T01:36:14.114Z,16.90
2022-10-17T01:38:50.088Z,16.90
2022-10-17T01:41:29.625Z,16.90
2022-10-17T01:44:06.504Z,16.90
2022-10-17T01:46:39.578Z,16.90
2022-10-17T01:49:16.074Z,16.90
2022-10-17T01:51:51.863Z,16.90
2022-10-17T01:54:26.849Z,16.90
2022-10-17T01:57:01.386Z,16.90
2022-10-17T01:59:39.628Z,16.90
2022-10-17T02:02:11.818Z,16.90
2022-10-17T02:04:45.054Z,16.90
2022-10-17T02:07:16.339Z,16.90
2022-10-17T02:09:46.937Z,16.90
2022-10-17T02:12:30.450Z,16.90
2022-10-17T02:15:13.110Z,16.90
2022-10-17T02:17:51.449Z,16.90
2022-10-17T02:20:31.255Z,16.90
2022-10-17T02:23:06.083Z,16.90
2022-10-17T02:25:42.295Z,16.90
2022-10-17T02:28:22.914Z,17.00
2022-10-17T02:30:57.901Z,16.90
2022-10-17T02:33:32.240Z,16.90
2022-10-17T02:36:09.155Z,17.00
2022-10-17T02:38:39.860Z,17.00
2022-10-17T02:41:14.075Z,17.00
2022-10-17T02:43:45.653Z,17.00
2022-10-17T02:46:21.385Z,17.00
2022-10-17T02:48:55.276Z,17.00
2022-10-17T02:51:35.418Z,17.00
2022-10-17T02:54:12.941Z,17.00
2022-10-17T02:56:49.693Z,17.00
2022-10-17T02:59:23.681Z,17.00
2022-10-17T03:01:54.648Z,17.00
2022-10-17T03:04:25.000Z,17.00
2022-10-17T03:06:57.832Z,17.10
2022-10-17T03:09:28.129Z,17.10
2022-10-17T03:11:58.421Z,17.10
2022-10-17T03:14:29.016Z,17.10
2022-10-17T03:16:59.202Z,17.10
2022-10-17T03:19:30.157Z,17.10
2022-10-17T03:22:03.014Z,17.10
2022-10-17T03:24:36.425Z,17.10
2022-10-17T03:27:07.212Z,17.10
2022-10-17T03:29:37.741Z,17.20
2022-10-17T03:32:10.362Z,17.20
2022-10-17T03:34:41.606Z,17.20
2022-10-17T03:37:15.420Z,17.20
2022-10-17T03:39:47.179Z,17.20
2022-10-17T03:42:17.449Z,17.30
2022-10-17T03:44:47.833Z,17.30
2022-10-17T03:47:18.087Z,17.30
2022-10-17T03:49:49.314Z,17.30
2022-10-17T03:52:22.282Z,17.30
2022-10-17T03:54:54.692Z,17.30
2022-10-17T03:57:25.028Z,17.30
2022-10-17T03:59:55.770Z,17.30
2022-10-17T04:02:26.090Z,17.40
2022-10-17T04:04:56.681Z,17.30
2022-10-17T04:07:29.507Z,17.30
2022-10-17T04:10:01.927Z,17.30
2022-10-17T04:12:32.542Z,17.30
2022-10-17T04:15:03.231Z,17.30
2022-10-17T04:17:37.307Z,17.30
2022-10-17T04:20:10.858Z,17.40
2022-10-17T04:22:43.845Z,17.30
2022-10-17T04:25:14.454Z,17.30
2022-10-17T04:27:49.161Z,17.30
2022-10-17T04:30:20.017Z,17.30
2022-10-17T04:32:50.954Z,17.40
2022-10-17T04:35:25.745Z,17.40
2022-10-17T04:38:06.233Z,17.40
2022-10-17T04:40:36.509Z,17.30
2022-10-17T04:43:07.364Z,17.40
2022-10-17T04:45:40.335Z,17.30
2022-10-17T04:48:10.624Z,17.40
2022-10-17T04:50:41.143Z,17.40
2022-10-17T04:53:35.550Z,17.40
2022-10-17T04:56:11.433Z,17.40
2022-10-17T04:58:42.534Z,17.40
2022-10-17T05:01:15.525Z,17.40
2022-10-17T05:03:47.806Z,17.40
2022-10-17T05:06:20.339Z,17.40
2022-10-17T05:09:08.043Z,17.40
2022-10-17T05:11:38.293Z,17.40
2022-10-17T05:14:08.697Z,17.40
2022-10-17T05:16:39.053Z,17.40
2022-10-17T05:19:09.436Z,17.40
2022-10-17T05:21:46.112Z,17.40
2022-10-17T05:24:19.652Z,17.40
2022-10-17T05:26:53.801Z,17.40
2022-10-17T05:29:24.320Z,17.40
2022-10-17T05:34:51.459Z,17.50
2022-10-17T05:37:22.039Z,17.50
2022-10-17T05:39:57.800Z,17.50
2022-10-17T05:42:29.434Z,17.50
2022-10-17T05:45:01.277Z,17.50
2022-10-17T05:47:32.011Z,17.50
2022-10-17T05:50:02.648Z,17.50
2022-10-17T05:52:46.483Z,17.50
2022-10-17T05:55:22.358Z,17.50
2022-10-17T05:57:54.136Z,17.50
2022-10-17T06:00:26.226Z,17.50
2022-10-17T06:03:01.347Z,17.50
2022-10-17T06:05:31.584Z,17.50
2022-10-17T06:08:02.416Z,17.50
2022-10-17T06:10:38.898Z,17.50
2022-10-17T06:13:09.244Z,17.50
2022-10-17T06:15:41.215Z,17.50
2022-10-17T06:18:12.458Z,17.50
2022-10-17T06:20:45.949Z,17.50
2022-10-17T06:23:18.785Z,17.50
2022-10-17T06:26:14.925Z,17.50
2022-10-17T06:28:46.037Z,17.50
2022-10-17T06:31:18.132Z,17.50
2022-10-17T06:33:48.953Z,17.50
2022-10-17T06:36:20.178Z,17.50
2022-10-17T06:38:51.759Z,17.50
2022-10-17T06:41:34.506Z,17.50
2022-10-17T06:44:11.344Z,17.50
2022-10-17T06:46:59.895Z,17.50
2022-10-17T06:49:30.997Z,17.50
2022-10-17T06:52:21.457Z,17.50
2022-10-17T06:55:15.860Z,17.60
2022-10-17T06:58:03.211Z,17.60
2022-10-17T07:00:56.404Z,17.60
2022-10-17T07:03:29.105Z,17.60
2022-10-17T07:06:00.578Z,17.70
2022-10-17T07:08:31.619Z,17.70
2022-10-17T07:11:12.446Z,17.70
2022-10-17T07:13:45.887Z,17.80
2022-10-17T07:16:17.163Z,17.80
2022-10-17T07:18:54.400Z,17.80
2022-10-17T07:21:24.880Z,17.80
2022-10-17T07:23:55.133Z,17.80
2022-10-17T07:26:25.705Z,17.80
2022-10-17T07:28:58.940Z,17.80
2022-10-17T07:31:45.871Z,17.80
2022-10-17T07:34:16.226Z,17.80
2022-10-17T07:36:47.254Z,17.80
2022-10-17T07:39:18.887Z,17.80
2022-10-17T07:41:49.445Z,17.90
2022-10-17T07:44:22.702Z,17.80
2022-10-17T07:46:55.266Z,17.80
2022-10-17T07:49:25.635Z,17.80
2022-10-17T07:51:55.959Z,17.80
2022-10-17T07:54:26.448Z,17.80
2022-10-17T07:56:56.781Z,17.80
2022-10-17T07:59:29.615Z,17.80
2022-10-17T08:02:00.094Z,17.80
2022-10-17T08:04:30.957Z,17.80
2022-10-17T08:07:18.204Z,17.80
2022-10-17T08:09:50.441Z,17.80
2022-10-17T08:12:20.793Z,17.80
2022-10-17T08:14:53.664Z,17.80
2022-10-17T08:17:23.977Z,17.80
2022-10-17T08:19:54.415Z,17.80
2022-10-17T08:22:24.775Z,17.80
2022-10-17T08:24:55.199Z,17.80
2022-10-17T08:27:27.891Z,17.80
2022-10-17T08:30:00.781Z,17.80
2022-10-17T08:32:32.258Z,17.80
2022-10-17T08:35:02.988Z,17.80
2022-10-17T08:37:33.577Z,17.70
2022-10-17T08:40:04.086Z,17.70
2022-10-17T08:42:46.040Z,17.70
2022-10-17T08:45:27.082Z,17.70
2022-10-17T08:48:02.213Z,17.70
2022-10-17T08:50:38.380Z,17.70
2022-10-17T08:53:14.998Z,17.70
2022-10-17T08:55:49.076Z,17.80
2022-10-17T08:58:23.042Z,17.80
2022-10-17T09:01:09.035Z,17.80
2022-10-17T09:03:52.859Z,17.80
2022-10-17T09:06:30.162Z,17.80
2022-10-17T09:09:13.638Z,17.80
2022-10-17T09:11:57.099Z,17.80
2022-10-17T09:14:40.025Z,17.80
2022-10-17T09:17:28.975Z,17.80
2022-10-17T09:20:05.990Z,17.80
2022-10-17T09:22:41.615Z,17.70
2022-10-17T09:25:16.580Z,17.80
2022-10-17T09:27:50.631Z,17.80
2022-10-17T09:30:47.508Z,17.80
2022-10-17T09:33:35.555Z,17.80
2022-10-17T09:36:16.158Z,17.70
2022-10-17T09:38:50.639Z,17.80
2022-10-17T09:44:20.242Z,17.80
2022-10-17T09:47:09.035Z,17.80
2022-10-17T09:49:43.239Z,17.80
2022-10-17T09:52:17.617Z,17.80
2022-10-17T09:54:50.764Z,17.90
2022-10-17T09:57:22.429Z,17.90
2022-10-17T10:00:01.155Z,17.90
2022-10-17T10:02:36.599Z,17.90
2022-10-17T10:05:20.059Z,17.90
2022-10-17T10:08:05.457Z,17.90
2022-10-17T10:10:36.590Z,17.90
2022-10-17T10:13:20.455Z,17.90
2022-10-17T10:15:52.682Z,17.90
2022-10-17T10:18:34.990Z,17.90
2022-10-17T10:21:14.400Z,17.90
2022-10-17T10:23:46.093Z,17.90
2022-10-17T10:26:24.766Z,17.90
2022-10-17T10:29:02.046Z,18.00
2022-10-17T10:31:38.394Z,18.00
2022-10-17T10:34:21.415Z,18.00
2022-10-17T10:37:01.759Z,18.00
2022-10-17T10:39:39.124Z,18.00
2022-10-17T10:42:12.409Z,18.00
2022-10-17T10:44:44.179Z,18.10
2022-10-17T10:47:27.321Z,18.10
2022-10-17T10:50:19.109Z,18.10
2022-10-17T10:52:58.228Z,18.10
2022-10-17T10:55:32.695Z,18.20
2022-10-17T10:58:07.221Z,18.10
2022-10-17T11:00:40.034Z,18.20
2022-10-17T11:03:19.366Z,18.20
2022-10-17T11:05:54.173Z,18.20
2022-10-17T11:08:34.202Z,18.20
2022-10-17T11:11:18.438Z,18.20
2022-10-17T11:13:54.317Z,18.20
2022-10-17T11:16:35.926Z,18.20
2022-10-17T11:19:15.139Z,18.20
2022-10-17T11:21:53.000Z,18.20
2022-10-17T11:24:30.989Z,18.20
2022-10-17T11:27:03.699Z,18.20
2022-10-17T11:29:36.103Z,18.20
2022-10-17T11:32:11.462Z,18.20
2022-10-17T11:34:47.056Z,18.30
2022-10-17T11:37:23.530Z,18.30
2022-10-17T11:40:00.789Z,18.30
2022-10-17T11:42:35.780Z,18.30
2022-10-17T11:45:10.820Z,18.20
2022-10-17T11:47:47.313Z,18.20
2022-10-17T11:53:19.119Z,18.30
2022-10-17T11:55:53.834Z,18.30
2022-10-17T11:58:39.631Z,18.30
2022-10-17T12:01:23.937Z,18.30
2022-10-17T12:04:19.972Z,18.30
2022-10-17T12:07:00.285Z,18.40
2022-10-17T12:09:41.042Z,18.30
2022-10-17T12:12:13.879Z,18.40
2022-10-17T12:14:46.871Z,18.30
2022-10-17T12:17:34.972Z,18.30
2022-10-17T12:20:30.696Z,18.40
2022-10-17T12:23:08.846Z,18.30
2022-10-17T12:28:23.429Z,18.30
2022-10-17T12:30:59.333Z,18.30
2022-10-17T12:33:35.670Z,18.30
2022-10-17T12:36:49.060Z,18.30
2022-10-17T12:39:48.904Z,18.40
2022-10-17T12:42:49.344Z,18.40
2022-10-17T12:45:49.815Z,18.40
2022-10-17T12:48:50.021Z,18.40
2022-10-17T12:51:40.732Z,18.40
2022-10-17T12:54:15.365Z,18.50
2022-10-17T12:56:48.331Z,18.50
2022-10-17T12:59:21.212Z,18.50
2022-10-17T13:01:54.649Z,18.50
2022-10-17T13:04:25.498Z,18.50
2022-10-17T13:07:01.435Z,18.50
2022-10-17T13:09:35.004Z,18.50
2022-10-17T13:12:08.439Z,18.50
2022-10-17T13:14:40.761Z,18.50
2022-10-17T13:17:23.481Z,18.50
2022-10-17T13:19:54.220Z,18.50
2022-10-17T13:22:29.669Z,18.50
2022-10-17T13:25:12.980Z,18.50
2022-10-17T13:27:43.299Z,18.60
2022-10-17T13:30:32.102Z,18.60
2022-10-17T13:33:04.002Z,18.70
2022-10-17T13:38:34.882Z,18.70
2022-10-17T13:44:06.392Z,18.70
2022-10-17T13:46:39.231Z,18.70
2022-10-17T13:49:20.602Z,18.70
2022-10-17T13:51:54.159Z,18.70
2022-10-17T13:54:40.490Z,18.70
2022-10-17T13:57:23.413Z,18.70
2022-10-17T13:59:56.378Z,18.70
2022-10-17T14:02:29.281Z,18.70
2022-10-17T14:05:23.116Z,18.70
2022-10-17T14:08:14.274Z,18.70
2022-10-17T14:10:48.291Z,18.70
2022-10-17T14:13:25.762Z,18.70
2022-10-17T14:15:57.782Z,18.70
2022-10-17T14:18:35.699Z,18.70
2022-10-17T14:24:18.096Z,18.70
2022-10-17T14:26:55.802Z,18.70
2022-10-17T14:29:28.763Z,18.70
2022-10-17T14:32:05.499Z,18.70
2022-10-17T14:34:38.977Z,18.60
2022-10-17T14:37:14.721Z,18.70
2022-10-17T14:39:45.180Z,18.60
2022-10-17T14:42:25.789Z,18.70
2022-10-17T14:44:58.112Z,18.70
2022-10-17T14:47:42.830Z,18.70
2022-10-17T14:50:26.103Z,18.70
2022-10-17T14:53:04.539Z,18.70
2022-10-17T14:55:36.668Z,18.70
2022-10-17T14:58:25.879Z,18.70
2022-10-17T15:00:56.292Z,18.70
2022-10-17T15:03:27.162Z,18.70
2022-10-17T15:05:58.718Z,18.70
2022-10-17T15:08:29.075Z,18.70
2022-10-17T15:10:59.426Z,18.70
2022-10-17T15:13:36.781Z,18.70
2022-10-17T15:16:18.943Z,18.70
2022-10-17T15:18:49.273Z,18.70
2022-10-17T15:21:33.644Z,18.70
2022-10-17T15:24:08.208Z,18.70
2022-10-17T15:26:39.004Z,18.70
2022-10-17T15:29:18.894Z,18.70
2022-10-17T15:31:49.220Z,18.70
2022-10-17T15:34:19.630Z,18.70
2022-10-17T15:36:54.187Z,18.70
2022-10-17T15:39:24.572Z,18.70
2022-10-17T15:41:54.996Z,18.70
2022-10-17T15:44:28.059Z,18.60
2022-10-17T15:46:59.522Z,18.70
2022-10-17T15:49:29.829Z,18.60
2022-10-17T15:52:00.547Z,18.60
2022-10-17T15:54:30.913Z,18.60
2022-10-17T15:57:01.201Z,18.60
2022-10-17T15:59:37.299Z,18.60
2022-10-17T16:02:07.596Z,18.60
2022-10-17T16:04:37.883Z,18.50
2022-10-17T16:07:08.192Z,18.50
2022-10-17T16:09:39.601Z,18.50
2022-10-17T16:12:14.863Z,18.60
2022-10-17T16:14:47.968Z,18.50
2022-10-17T16:17:19.397Z,18.50
2022-10-17T16:19:50.126Z,18.50
2022-10-17T16:22:25.494Z,18.50
2022-10-17T16:24:59.374Z,18.50
2022-10-17T16:27:29.825Z,18.50
2022-10-17T16:30:03.361Z,18.50
2022-10-17T16:32:33.676Z,18.50
2022-10-17T16:35:03.979Z,18.50
2022-10-17T16:37:34.349Z,18.40
2022-10-17T16:40:04.741Z,18.40
2022-10-17T16:42:35.094Z,18.40
2022-10-17T16:45:08.944Z,18.40
2022-10-17T16:47:39.232Z,18.40
2022-10-17T16:50:10.289Z,18.40
2022-10-17T16:52:40.624Z,18.30
2022-10-17T16:55:12.132Z,18.30
2022-10-17T16:57:42.489Z,18.30
2022-10-17T17:00:16.481Z,18.30
2022-10-17T17:02:46.929Z,18.30
2022-10-17T17:05:17.592Z,18.30
2022-10-17T17:07:49.260Z,18.30
2022-10-17T17:10:19.764Z,18.30
2022-10-17T17:12:50.244Z,18.30
2022-10-17T17:15:23.202Z,18.30
2022-10-17T17:17:55.480Z,18.30
2022-10-17T17:20:26.282Z,18.30
2022-10-17T17:22:56.620Z,18.30
2022-10-17T17:25:27.027Z,18.30
2022-10-17T17:27:57.351Z,18.30
2022-10-17T17:30:30.498Z,18.30
2022-10-17T17:33:01.285Z,18.30
2022-10-17T17:35:32.050Z,18.30
2022-10-17T17:38:04.866Z,18.30
2022-10-17T17:40:35.184Z,18.30
2022-10-17T17:43:05.771Z,18.30
2022-10-17T17:45:38.689Z,18.30
2022-10-17T17:48:09.320Z,18.30
2022-10-17T17:50:40.792Z,18.30
2022-10-17T17:53:12.148Z,18.20
2022-10-17T17:55:42.419Z,18.20
2022-10-17T17:58:12.745Z,18.20
2022-10-17T18:00:45.706Z,18.20
2022-10-17T18:03:15.993Z,18.20
2022-10-17T18:05:46.335Z,18.20
2022-10-17T18:08:16.618Z,18.20
2022-10-17T18:10:54.494Z,18.20
2022-10-17T18:13:24.776Z,18.20
2022-10-17T18:15:59.780Z,18.10
2022-10-17T18:18:31.442Z,18.10
2022-10-17T18:21:04.542Z,18.10
2022-10-17T18:23:34.818Z,18.10
2022-10-17T18:26:05.337Z,18.20
2022-10-17T18:28:37.326Z,18.10
2022-10-17T18:31:12.578Z,18.20
2022-10-17T18:33:44.728Z,18.10
2022-10-17T18:36:18.125Z,18.10
2022-10-17T18:38:48.534Z,18.10
2022-10-17T18:41:21.130Z,18.10
2022-10-17T18:43:53.037Z,18.00
2022-10-17T18:46:27.840Z,18.10
2022-10-17T18:48:58.646Z,18.00
2022-10-17T18:51:29.599Z,18.00
2022-10-17T18:54:02.505Z,18.00
2022-10-17T18:56:33.981Z,17.90
2022-10-17T18:59:04.693Z,18.00
2022-10-17T19:01:37.997Z,18.00
2022-10-17T19:04:08.319Z,18.00
2022-10-17T19:06:38.649Z,18.00
2022-10-17T19:09:11.571Z,18.00
2022-10-17T19:11:42.994Z,18.00
2022-10-17T19:14:15.833Z,18.00
2022-10-17T19:16:51.049Z,18.00
2022-10-17T19:19:23.197Z,17.90
2022-10-17T19:21:54.192Z,18.00
2022-10-17T19:24:27.015Z,17.90
2022-10-17T19:26:59.573Z,18.00
2022-10-17T19:29:32.034Z,17.90
2022-10-17T19:32:14.112Z,17.90
2022-10-17T19:34:47.339Z,17.90
2022-10-17T19:37:17.682Z,17.90
2022-10-17T19:39:47.958Z,17.90
2022-10-17T19:42:18.347Z,17.90
2022-10-17T19:44:48.774Z,17.90
2022-10-17T19:47:21.640Z,17.90
2022-10-17T19:49:51.985Z,17.90
2022-10-17T19:52:22.406Z,17.90
2022-10-17T19:54:52.684Z,17.90
2022-10-17T19:57:22.956Z,17.90
2022-10-17T19:59:55.860Z,17.90
2022-10-17T20:02:29.346Z,17.80
2022-10-17T20:05:17.434Z,17.90
2022-10-17T20:07:48.620Z,17.90
2022-10-17T20:10:19.159Z,17.80
2022-10-17T20:12:49.358Z,17.80
2022-10-17T20:15:19.902Z,17.80
2022-10-17T20:17:52.816Z,17.80
2022-10-17T20:20:23.129Z,17.80
2022-10-17T20:22:53.395Z,17.80
2022-10-17T20:25:23.808Z,17.80
2022-10-17T20:27:54.143Z,17.80
2022-10-17T20:30:24.485Z,17.80
2022-10-17T20:32:57.771Z,17.80
2022-10-17T20:35:28.172Z,17.80
2022-10-17T20:37:58.442Z,17.80
2022-10-17T20:40:36.095Z,17.70
2022-10-17T20:43:07.581Z,17.70
2022-10-17T20:45:50.675Z,17.80
2022-10-17T20:48:24.682Z,17.80
2022-10-17T20:50:55.177Z,17.80
2022-10-17T20:53:36.493Z,17.80
2022-10-17T20:56:09.280Z,17.80
2022-10-17T20:58:39.671Z,17.70
2022-10-17T21:01:10.876Z,17.70
2022-10-17T21:03:46.424Z,17.70
2022-10-17T21:06:17.805Z,17.80
2022-10-17T21:08:48.860Z,17.70
2022-10-17T21:11:20.647Z,17.70
2022-10-17T21:13:56.410Z,17.70
2022-10-17T21:16:27.190Z,17.70
2022-10-17T21:19:00.387Z,17.70
2022-10-17T21:21:33.871Z,17.70
2022-10-17T21:24:05.644Z,17.70
2022-10-17T21:26:37.166Z,17.70
2022-10-17T21:29:08.339Z,17.60
2022-10-17T21:31:40.513Z,17.60
2022-10-17T21:34:15.137Z,17.60
2022-10-17T21:36:45.617Z,17.60
2022-10-17T21:39:17.206Z,17.70
2022-10-17T21:41:48.008Z,17.60
2022-10-17T21:44:21.745Z,17.60
2022-10-17T21:46:52.592Z,17.70
2022-10-17T21:49:27.842Z,17.70
2022-10-17T21:51:58.622Z,17.60
2022-10-17T21:54:28.960Z,17.70
2022-10-17T21:56:59.459Z,17.70
2022-10-17T21:59:31.678Z,17.70
2022-10-17T22:02:02.051Z,17.70
2022-10-17T22:04:35.025Z,17.70
2022-10-17T22:07:05.345Z,17.70
2022-10-17T22:09:35.881Z,17.70
2022-10-17T22:12:06.221Z,17.70
2022-10-17T22:14:36.492Z,17.60
2022-10-17T22:17:06.832Z,17.70
2022-10-17T22:19:39.746Z,17.70
2022-10-17T22:22:10.147Z,17.70
2022-10-17T22:24:40.575Z,17.70
2022-10-17T22:27:11.980Z,17.70
2022-10-17T22:29:42.498Z,17.60
2022-10-17T22:32:12.855Z,17.70
2022-10-17T22:34:46.461Z,17.70
2022-10-17T22:37:17.438Z,17.60
2022-10-17T22:39:47.733Z,17.60
2022-10-17T22:42:18.170Z,17.60
2022-10-17T22:44:48.415Z,17.60
2022-10-17T22:47:18.773Z,17.60
2022-10-17T22:49:51.552Z,17.60
2022-10-17T22:52:21.939Z,17.60
2022-10-17T22:54:52.146Z,17.60
2022-10-17T22:57:22.623Z,17.60
2022-10-17T22:59:52.825Z,17.50
2022-10-17T23:02:23.076Z,17.50
2022-10-17T23:04:56.000Z,17.50
2022-10-17T23:07:26.330Z,17.50
2022-10-17T23:09:56.818Z,17.50
2022-10-17T23:12:27.745Z,17.50
2022-10-17T23:14:58.384Z,17.50
2022-10-17T23:17:28.837Z,17.50
2022-10-17T23:20:01.680Z,17.50
2022-10-17T23:22:32.202Z,17.50
2022-10-17T23:25:02.651Z,17.40
2022-10-17T23:27:33.016Z,17.50
2022-10-17T23:30:03.223Z,17.50
2022-10-17T23:32:33.639Z,17.50
2022-10-17T23:35:06.740Z,17.50
2022-10-17T23:37:37.337Z,17.50
2022-10-17T23:40:09.259Z,17.50
2022-10-17T23:42:39.826Z,17.50
2022-10-17T23:45:11.718Z,17.50
2022-10-17T23:47:42.121Z,17.50
2022-10-17T23:50:15.015Z,17.50
2022-10-17T23:52:45.335Z,17.50
2022-10-17T23:55:15.583Z,17.50
2022-10-17T23:57:45.855Z,17.60
